Crown Point, Vermont
Current Conditions -  °F | °C
As of 11:55 PM on Saturday 22 Nov 2014 (Local Time) from K6B0 Reporting Station
Overcast Overcast  
Wind Chill: 32°   Ceiling: 2700
Heat Index: 40°   Visibility: 10mi
Dew Point: 29°   Wind: 15mph
Humidity: 64%   Direction: 180°S
Pressure: 29.99"   Gusts: 23mph
Location:  44.0804°N, 73.3324°W
Report Text: K6B0 230455Z AUTO 18013G20KT 10SM OVC027 05/M01 A2999 RMK AO2 T00471015 400471091
Loading
Personal Weather Stations






























Interactive Weather Map New forecast layout! Learn more

10-Day Weather Forecast

Advertisements
Track Severe Weather on mobile